Blue Bay — V2CE6 — position and weather

sailwx.info

Track history (hours):
 
Tides and Currents Weather Stations Pressure Air Temp Water Temp Dewpoint Dewpoint Depression Visibility Wind Speed Wind Dir Waves Ship Positions

Blue Bay

Last reported at 2016-May-30 21:33 UTC. Time now 2016-May-30 22:14 UTC.
Position N 53°32' E 004°57'.

Length 89 m; draft 3.3 m.

Type: Cargo ship. MMSI: 304519000.

Date/timePositionNaut miles runAvg speedWind from/ knotsBaromVisibWave heightAir tempDewpointWater temp
2016-May-30 21:33N 53°32' E 004°57'1111.5
2016-May-30 20:33N 53°37' E 005°15'1212.1
2016-May-30 19:34N 53°40' E 005°34'1212.3
2016-May-30 18:33N 53°44' E 005°54'1211.7
2016-May-30 17:33N 53°47' E 006°13'7 7.2
2016-May-30 16:33N 53°44' E 006°24'9 8.9
2016-May-30 15:33N 53°37' E 006°32'10 9.6
2016-May-30 14:33N 53°31' E 006°45'5 5.0
2016-May-30 13:33N 53°27' E 006°50'0 0.0
2016-May-30 12:33N 53°27' E 006°50'0 0.0
2016-May-30 11:33N 53°27' E 006°50'0 0.0
2016-May-30 10:33N 53°27' E 006°50'0 0.0
2016-May-30 09:33N 53°27' E 006°50'0 0.0
2016-May-30 08:33N 53°27' E 006°50'0 0.0
2016-May-30 07:33N 53°27' E 006°50'0 0.0
2016-May-30 06:33N 53°27' E 006°50'0 0.0
2016-May-30 05:33N 53°27' E 006°50'0 0.0
2016-May-30 04:33N 53°27' E 006°50'0 0.0
2016-May-30 03:33N 53°27' E 006°50'0 0.0
2016-May-30 02:33N 53°27' E 006°50'0 0.0
2016-May-30 01:33N 53°27' E 006°50'0 0.0
2016-May-30 00:33N 53°27' E 006°50'0 0.0
2016-May-29 23:33N 53°27' E 006°50'0 0.0
2016-May-29 22:33N 53°27' E 006°50'0 0.0
2016-May-29 21:33N 53°27' E 006°50'0 0.0
2016-May-29 20:33N 53°27' E 006°50'0 0.0
2016-May-29 19:33N 53°27' E 006°50'0 0.0
2016-May-29 18:33N 53°27' E 006°50'0 0.0
2016-May-29 17:33N 53°27' E 006°50'0 0.0
2016-May-29 16:33N 53°27' E 006°50'0 0.0
2016-May-29 15:33N 53°27' E 006°50'0 0.0
2016-May-29 14:33N 53°27' E 006°50'0 0.0
2016-May-29 13:33N 53°27' E 006°50'0 0.0
2016-May-29 12:33N 53°27' E 006°50'0 0.0
2016-May-29 11:33N 53°27' E 006°50'0 0.0
2016-May-29 10:33N 53°27' E 006°50'0 0.0
2016-May-29 09:33N 53°27' E 006°50'0 0.0
2016-May-29 08:33N 53°27' E 006°50'0 0.0
2016-May-29 07:33N 53°27' E 006°50'0 0.0
2016-May-29 06:33N 53°27' E 006°50'0 0.0
2016-May-29 05:33N 53°27' E 006°50'0 0.0
2016-May-29 04:33N 53°27' E 006°50'0 0.0
2016-May-29 03:33N 53°27' E 006°50'0 0.0
2016-May-29 02:33N 53°27' E 006°50'0 0.0
2016-May-29 01:33N 53°27' E 006°50'0 0.0
2016-May-29 00:33N 53°27' E 006°50'0 0.0
2016-May-28 23:33N 53°27' E 006°50'0 0.0
2016-May-28 22:33N 53°27' E 006°50'0 0.0
2016-May-28 21:33N 53°27' E 006°50'4 4.4
2016-May-28 20:33N 53°31' E 006°46'9 8.6
2016-May-28 19:33N 53°36' E 006°35'8 8.2
2016-May-28 18:33N 53°37' E 006°21'8 8.3
2016-May-28 17:33N 53°40' E 006°08'8 8.5
2016-May-28 16:33N 53°39' E 005°53'9 8.8
2016-May-28 15:33N 53°37' E 005°39'9 9.1
2016-May-28 14:33N 53°34' E 005°25'9 9.4
2016-May-28 13:34N 53°30' E 005°10'1010.0
2016-May-28 12:33N 53°27' E 004°54'1110.6
2016-May-28 11:33N 53°21' E 004°39'131 9.8
2016-May-27 22:09N 53°34' E 000°59'610.3
2016-May-27 21:33N 53°34' E 000°49'10 9.7
2016-May-27 20:33N 53°33' E 000°33'10 9.7
2016-May-27 19:33N 53°32' E 000°16'8 8.0
2016-May-27 18:33N 53°35' E 000°04'8 8.0
2016-May-27 17:33N 53°38' W 000°09'8 8.1
2016-May-27 16:33N 53°44' W 000°16'0 0.2
2016-May-27 15:34N 53°44' W 000°16'0 0.0
2016-May-27 14:33N 53°44' W 000°16'0 0.0
2016-May-27 13:33N 53°44' W 000°16'0 0.0
2016-May-27 12:33N 53°44' W 000°16'0 0.0
2016-May-27 11:33N 53°44' W 000°16'0 0.0
2016-May-27 10:33N 53°44' W 000°16'0 0.0
2016-May-27 09:33N 53°44' W 000°16'0 0.0
2016-May-27 08:33N 53°44' W 000°16'0 0.0
2016-May-27 07:33N 53°44' W 000°16'0 0.0
2016-May-27 06:33N 53°44' W 000°16'0 0.0
2016-May-27 05:33N 53°44' W 000°16'0 0.0
2016-May-27 04:33N 53°44' W 000°16'0 0.0
2016-May-27 03:33N 53°44' W 000°16'0 0.0
2016-May-27 02:33N 53°44' W 000°16'0 0.0
2016-May-27 01:33N 53°44' W 000°16'0 0.0
2016-May-27 00:33N 53°44' W 000°16'0 0.0
2016-May-26 23:33N 53°44' W 000°16'0 0.0
2016-May-26 22:33N 53°44' W 000°16'0 0.0
2016-May-26 21:33N 53°44' W 000°16'0 0.0
2016-May-26 20:33N 53°44' W 000°16'0 0.0
2016-May-26 19:33N 53°44' W 000°16'0 0.0
2016-May-26 18:33N 53°44' W 000°16'0 0.0
2016-May-26 17:33N 53°44' W 000°16'0 0.0
2016-May-26 16:33N 53°44' W 000°16'0 0.0
2016-May-26 15:33N 53°44' W 000°16'0 0.0
2016-May-26 14:33N 53°44' W 000°16'0 0.0
2016-May-26 13:33N 53°44' W 000°16'0 0.0
2016-May-26 12:33N 53°44' W 000°16'0 0.0
2016-May-26 11:33N 53°44' W 000°16'0 0.0
2016-May-26 10:33N 53°44' W 000°16'0 0.0
2016-May-26 09:33N 53°44' W 000°16'0 0.0
2016-May-26 08:33N 53°44' W 000°16'0 0.0
2016-May-26 07:33N 53°44' W 000°16'0 0.0
2016-May-26 06:33N 53°44' W 000°16'0 0.0
2016-May-26 05:33N 53°44' W 000°16'0 0.0
2016-May-26 04:33N 53°44' W 000°16'0 0.0
2016-May-26 03:33N 53°44' W 000°16'0 0.0
2016-May-26 02:33N 53°44' W 000°16'0 0.0
2016-May-26 01:33N 53°44' W 000°16'0 0.0
2016-May-26 00:33N 53°44' W 000°16'0 0.0
2016-May-25 23:33N 53°44' W 000°16'0 0.0
2016-May-25 22:33N 53°44' W 000°16'0 0.0
2016-May-25 21:33N 53°44' W 000°16'0 0.0
2016-May-25 20:33N 53°44' W 000°16'0 0.0
2016-May-25 19:33N 53°44' W 000°16'0 0.0
2016-May-25 18:33N 53°44' W 000°16'0 0.0
2016-May-25 17:33N 53°44' W 000°16'0 0.0
2016-May-25 16:33N 53°44' W 000°16'0 0.0
2016-May-25 15:33N 53°44' W 000°16'0 0.0
2016-May-25 14:33N 53°44' W 000°16'0 0.0
2016-May-25 13:33N 53°44' W 000°16'0 0.0
2016-May-25 12:33N 53°44' W 000°16'0 0.0
2016-May-25 11:33N 53°44' W 000°16'0 0.0
2016-May-25 10:33N 53°44' W 000°16'0 0.0
2016-May-25 09:33N 53°44' W 000°16'0 0.0
2016-May-25 08:33N 53°44' W 000°16'0 0.0
2016-May-25 07:33N 53°44' W 000°16'0 0.0
2016-May-25 06:33N 53°44' W 000°16'0 0.0
2016-May-25 05:33N 53°44' W 000°16'0 0.0
2016-May-25 04:33N 53°44' W 000°16'0 0.0
2016-May-25 03:33N 53°44' W 000°16'0 0.0
2016-May-25 02:33N 53°44' W 000°16'0 0.0
2016-May-25 01:33N 53°44' W 000°16'0 0.0
2016-May-25 00:33N 53°44' W 000°16'0 0.0
2016-May-24 23:33N 53°44' W 000°16'0 0.0
2016-May-24 22:33N 53°44' W 000°16'0 0.0
2016-May-24 21:33N 53°44' W 000°16'0 0.0
2016-May-24 20:33N 53°44' W 000°16'0 0.0
2016-May-24 19:33N 53°44' W 000°16'0 0.0
2016-May-24 18:33N 53°44' W 000°16'0 0.0
2016-May-24 17:33N 53°44' W 000°16'0 0.0
2016-May-24 16:33N 53°44' W 000°16'0 0.0
2016-May-24 15:33N 53°44' W 000°16'0 0.0
2016-May-24 14:33N 53°44' W 000°16'0 0.0
2016-May-24 13:33N 53°44' W 000°16'0 0.0
2016-May-24 12:33N 53°44' W 000°16'0 0.0
2016-May-24 11:34N 53°44' W 000°16'0 0.0
2016-May-24 10:33N 53°44' W 000°16'0 0.3
2016-May-24 09:33N 53°44' W 000°16'0 0.0
2016-May-24 08:33N 53°44' W 000°16'0 0.0
2016-May-24 07:33N 53°44' W 000°16'0 0.0
2016-May-24 06:33N 53°44' W 000°16'0 0.0
2016-May-24 05:33N 53°44' W 000°16'0 0.0
2016-May-24 04:34N 53°44' W 000°16'0 0.0
2016-May-24 03:33N 53°44' W 000°16'0 0.0
2016-May-24 02:33N 53°44' W 000°16'0 0.0
2016-May-24 01:33N 53°44' W 000°16'0 0.0
2016-May-24 00:33N 53°44' W 000°16'0 0.0
2016-May-23 23:33N 53°44' W 000°16'0 0.0
2016-May-23 22:33N 53°44' W 000°16'0 0.0
2016-May-23 21:33N 53°44' W 000°16'0 0.1
2016-May-23 20:33N 53°44' W 000°16'1 0.9
2016-May-23 19:33N 53°44' W 000°16'4 3.6
2016-May-23 18:33N 53°43' W 000°22'0 0.0
2016-May-23 17:34N 53°43' W 000°22'0 0.0
2016-May-23 16:34N 53°43' W 000°22'0 0.0
2016-May-23 15:34N 53°43' W 000°22'0 0.0
2016-May-23 14:34N 53°43' W 000°22'0 0.0
2016-May-23 13:33N 53°43' W 000°22'0 0.0
2016-May-23 12:33N 53°43' W 000°22'0 0.0
2016-May-23 11:33N 53°43' W 000°22'0 0.0
2016-May-23 10:33N 53°43' W 000°22'0 0.0
2016-May-23 09:33N 53°43' W 000°22'0 0.0
2016-May-23 08:33N 53°43' W 000°22'0 0.0
2016-May-23 07:34N 53°43' W 000°22'0 0.0
2016-May-23 06:33N 53°43' W 000°22'0 0.0
2016-May-23 05:33N 53°43' W 000°22'0 0.0
2016-May-23 04:34N 53°43' W 000°22'0 0.0
2016-May-23 03:33N 53°43' W 000°22'0 0.0
2016-May-23 02:33N 53°43' W 000°22'0 0.0
2016-May-23 01:34N 53°43' W 000°22'0 0.0
2016-May-23 00:34N 53°43' W 000°22'0 0.0
2016-May-22 23:33N 53°43' W 000°22'0 0.0
2016-May-22 22:34N 53°43' W 000°22'0 0.0
2016-May-22 21:33N 53°43' W 000°22'0 0.0
2016-May-22 20:33N 53°43' W 000°22'0 0.0
2016-May-22 19:33N 53°43' W 000°22'0 0.0
2016-May-22 18:33N 53°43' W 000°22'0 0.0
2016-May-22 17:33N 53°43' W 000°22'5 4.7
2016-May-22 16:33N 53°42' W 000°14'1111.0
2016-May-22 15:34N 53°36' E 000°01'9 9.3
2016-May-22 14:34N 53°33' E 000°16'5 5.5
2016-May-22 13:33N 53°36' E 000°24'0 0.0
2016-May-22 12:31N 53°36' E 000°24'0 0.0
2016-May-22 11:32N 53°36' E 000°24'0 0.0
2016-May-22 10:33N 53°36' E 000°24'0 0.0
2016-May-22 09:33N 53°36' E 000°24'0 0.0
2016-May-22 08:33N 53°36' E 000°24'0 0.0
2016-May-22 07:32N 53°36' E 000°24'0 0.2
2016-May-22 06:33N 53°36' E 000°25'5 4.8
2016-May-22 05:33N 53°35' E 000°33'152 8.3
2016-May-21 11:08N 53°31' E 004°48'610.0
2016-May-21 10:33N 53°33' E 004°58'10 9.6
2016-May-21 09:33N 53°36' E 005°13'9 8.9
2016-May-21 08:33N 53°39' E 005°27'8 8.1
2016-May-21 07:33N 53°41' E 005°40'8 8.4
2016-May-21 06:33N 53°44' E 005°54'9 8.5
2016-May-21 05:33N 53°46' E 006°08'9 9.1
2016-May-21 04:33N 53°49' E 006°22'1010.3
2016-May-21 03:33N 53°52' E 006°39'1110.7
2016-May-21 02:33N 53°54' E 006°57'1110.8
2016-May-21 01:33N 53°57' E 007°15'1010.4
2016-May-21 00:33N 53°59' E 007°32'8 8.1
2016-May-20 23:33N 53°55' E 007°44'9 9.3
2016-May-20 22:33N 53°52' E 007°58'9 8.6
2016-May-20 21:33N 53°47' E 008°10'  
Track history (hours):
 
Tides and Currents Weather Stations Pressure Air Temp Water Temp Dewpoint Dewpoint Depression Visibility Wind Speed Wind Dir Waves Ship Positions

Blue Bay

Last reported at 2016-May-30 21:33 UTC. Time now 2016-May-30 22:14 UTC.
Position N 53°32' E 004°57'.

Length 89 m; draft 3.3 m.

Type: Cargo ship. MMSI: 304519000.

Date/timePositionNaut miles runAvg speedWind from/ knotsBaromVisibWave heightAir tempDewpointWater temp
2016-May-30 21:33N 53°32' E 004°57'1111.5
2016-May-30 20:33N 53°37' E 005°15'1212.1
2016-May-30 19:34N 53°40' E 005°34'1212.3
2016-May-30 18:33N 53°44' E 005°54'1211.7
2016-May-30 17:33N 53°47' E 006°13'7 7.2
2016-May-30 16:33N 53°44' E 006°24'9 8.9
2016-May-30 15:33N 53°37' E 006°32'10 9.6
2016-May-30 14:33N 53°31' E 006°45'5 5.0
2016-May-30 13:33N 53°27' E 006°50'0 0.0
2016-May-30 12:33N 53°27' E 006°50'0 0.0
2016-May-30 11:33N 53°27' E 006°50'0 0.0
2016-May-30 10:33N 53°27' E 006°50'0 0.0
2016-May-30 09:33N 53°27' E 006°50'0 0.0
2016-May-30 08:33N 53°27' E 006°50'0 0.0
2016-May-30 07:33N 53°27' E 006°50'0 0.0
2016-May-30 06:33N 53°27' E 006°50'0 0.0
2016-May-30 05:33N 53°27' E 006°50'0 0.0
2016-May-30 04:33N 53°27' E 006°50'0 0.0
2016-May-30 03:33N 53°27' E 006°50'0 0.0
2016-May-30 02:33N 53°27' E 006°50'0 0.0
2016-May-30 01:33N 53°27' E 006°50'0 0.0
2016-May-30 00:33N 53°27' E 006°50'0 0.0
2016-May-29 23:33N 53°27' E 006°50'0 0.0
2016-May-29 22:33N 53°27' E 006°50'0 0.0
2016-May-29 21:33N 53°27' E 006°50'0 0.0
2016-May-29 20:33N 53°27' E 006°50'0 0.0
2016-May-29 19:33N 53°27' E 006°50'0 0.0
2016-May-29 18:33N 53°27' E 006°50'0 0.0
2016-May-29 17:33N 53°27' E 006°50'0 0.0
2016-May-29 16:33N 53°27' E 006°50'0 0.0
2016-May-29 15:33N 53°27' E 006°50'0 0.0
2016-May-29 14:33N 53°27' E 006°50'0 0.0
2016-May-29 13:33N 53°27' E 006°50'0 0.0
2016-May-29 12:33N 53°27' E 006°50'0 0.0
2016-May-29 11:33N 53°27' E 006°50'0 0.0
2016-May-29 10:33N 53°27' E 006°50'0 0.0
2016-May-29 09:33N 53°27' E 006°50'0 0.0
2016-May-29 08:33N 53°27' E 006°50'0 0.0
2016-May-29 07:33N 53°27' E 006°50'0 0.0
2016-May-29 06:33N 53°27' E 006°50'0 0.0
2016-May-29 05:33N 53°27' E 006°50'0 0.0
2016-May-29 04:33N 53°27' E 006°50'0 0.0
2016-May-29 03:33N 53°27' E 006°50'0 0.0
2016-May-29 02:33N 53°27' E 006°50'0 0.0
2016-May-29 01:33N 53°27' E 006°50'0 0.0
2016-May-29 00:33N 53°27' E 006°50'0 0.0
2016-May-28 23:33N 53°27' E 006°50'0 0.0
2016-May-28 22:33N 53°27' E 006°50'0 0.0
2016-May-28 21:33N 53°27' E 006°50'4 4.4
2016-May-28 20:33N 53°31' E 006°46'9 8.6
2016-May-28 19:33N 53°36' E 006°35'8 8.2
2016-May-28 18:33N 53°37' E 006°21'8 8.3
2016-May-28 17:33N 53°40' E 006°08'8 8.5
2016-May-28 16:33N 53°39' E 005°53'9 8.8
2016-May-28 15:33N 53°37' E 005°39'9 9.1
2016-May-28 14:33N 53°34' E 005°25'9 9.4
2016-May-28 13:34N 53°30' E 005°10'1010.0
2016-May-28 12:33N 53°27' E 004°54'1110.6
2016-May-28 11:33N 53°21' E 004°39'131 9.8
2016-May-27 22:09N 53°34' E 000°59'610.3
2016-May-27 21:33N 53°34' E 000°49'10 9.7
2016-May-27 20:33N 53°33' E 000°33'10 9.7
2016-May-27 19:33N 53°32' E 000°16'8 8.0
2016-May-27 18:33N 53°35' E 000°04'8 8.0
2016-May-27 17:33N 53°38' W 000°09'8 8.1
2016-May-27 16:33N 53°44' W 000°16'0 0.2
2016-May-27 15:34N 53°44' W 000°16'0 0.0
2016-May-27 14:33N 53°44' W 000°16'0 0.0
2016-May-27 13:33N 53°44' W 000°16'0 0.0
2016-May-27 12:33N 53°44' W 000°16'0 0.0
2016-May-27 11:33N 53°44' W 000°16'0 0.0
2016-May-27 10:33N 53°44' W 000°16'0 0.0
2016-May-27 09:33N 53°44' W 000°16'0 0.0
2016-May-27 08:33N 53°44' W 000°16'0 0.0
2016-May-27 07:33N 53°44' W 000°16'0 0.0
2016-May-27 06:33N 53°44' W 000°16'0 0.0
2016-May-27 05:33N 53°44' W 000°16'0 0.0
2016-May-27 04:33N 53°44' W 000°16'0 0.0
2016-May-27 03:33N 53°44' W 000°16'0 0.0
2016-May-27 02:33N 53°44' W 000°16'0 0.0
2016-May-27 01:33N 53°44' W 000°16'0 0.0
2016-May-27 00:33N 53°44' W 000°16'0 0.0
2016-May-26 23:33N 53°44' W 000°16'0 0.0
2016-May-26 22:33N 53°44' W 000°16'0 0.0
2016-May-26 21:33N 53°44' W 000°16'0 0.0
2016-May-26 20:33N 53°44' W 000°16'0 0.0
2016-May-26 19:33N 53°44' W 000°16'0 0.0
2016-May-26 18:33N 53°44' W 000°16'0 0.0
2016-May-26 17:33N 53°44' W 000°16'0 0.0
2016-May-26 16:33N 53°44' W 000°16'0 0.0
2016-May-26 15:33N 53°44' W 000°16'0 0.0
2016-May-26 14:33N 53°44' W 000°16'0 0.0
2016-May-26 13:33N 53°44' W 000°16'0 0.0
2016-May-26 12:33N 53°44' W 000°16'0 0.0
2016-May-26 11:33N 53°44' W 000°16'0 0.0
2016-May-26 10:33N 53°44' W 000°16'0 0.0
2016-May-26 09:33N 53°44' W 000°16'0 0.0
2016-May-26 08:33N 53°44' W 000°16'0 0.0
2016-May-26 07:33N 53°44' W 000°16'0 0.0
2016-May-26 06:33N 53°44' W 000°16'0 0.0
2016-May-26 05:33N 53°44' W 000°16'0 0.0
2016-May-26 04:33N 53°44' W 000°16'0 0.0
2016-May-26 03:33N 53°44' W 000°16'0 0.0
2016-May-26 02:33N 53°44' W 000°16'0 0.0
2016-May-26 01:33N 53°44' W 000°16'0 0.0
2016-May-26 00:33N 53°44' W 000°16'0 0.0
2016-May-25 23:33N 53°44' W 000°16'0 0.0
2016-May-25 22:33N 53°44' W 000°16'0 0.0
2016-May-25 21:33N 53°44' W 000°16'0 0.0
2016-May-25 20:33N 53°44' W 000°16'0 0.0
2016-May-25 19:33N 53°44' W 000°16'0 0.0
2016-May-25 18:33N 53°44' W 000°16'0 0.0
2016-May-25 17:33N 53°44' W 000°16'0 0.0
2016-May-25 16:33N 53°44' W 000°16'0 0.0
2016-May-25 15:33N 53°44' W 000°16'0 0.0
2016-May-25 14:33N 53°44' W 000°16'0 0.0
2016-May-25 13:33N 53°44' W 000°16'0 0.0
2016-May-25 12:33N 53°44' W 000°16'0 0.0
2016-May-25 11:33N 53°44' W 000°16'0 0.0
2016-May-25 10:33N 53°44' W 000°16'0 0.0
2016-May-25 09:33N 53°44' W 000°16'0 0.0
2016-May-25 08:33N 53°44' W 000°16'0 0.0
2016-May-25 07:33N 53°44' W 000°16'0 0.0
2016-May-25 06:33N 53°44' W 000°16'0 0.0
2016-May-25 05:33N 53°44' W 000°16'0 0.0
2016-May-25 04:33N 53°44' W 000°16'0 0.0
2016-May-25 03:33N 53°44' W 000°16'0 0.0
2016-May-25 02:33N 53°44' W 000°16'0 0.0
2016-May-25 01:33N 53°44' W 000°16'0 0.0
2016-May-25 00:33N 53°44' W 000°16'0 0.0
2016-May-24 23:33N 53°44' W 000°16'0 0.0
2016-May-24 22:33N 53°44' W 000°16'0 0.0
2016-May-24 21:33N 53°44' W 000°16'0 0.0
2016-May-24 20:33N 53°44' W 000°16'0 0.0
2016-May-24 19:33N 53°44' W 000°16'0 0.0
2016-May-24 18:33N 53°44' W 000°16'0 0.0
2016-May-24 17:33N 53°44' W 000°16'0 0.0
2016-May-24 16:33N 53°44' W 000°16'0 0.0
2016-May-24 15:33N 53°44' W 000°16'0 0.0
2016-May-24 14:33N 53°44' W 000°16'0 0.0
2016-May-24 13:33N 53°44' W 000°16'0 0.0
2016-May-24 12:33N 53°44' W 000°16'0 0.0
2016-May-24 11:34N 53°44' W 000°16'0 0.0
2016-May-24 10:33N 53°44' W 000°16'0 0.3
2016-May-24 09:33N 53°44' W 000°16'0 0.0
2016-May-24 08:33N 53°44' W 000°16'0 0.0
2016-May-24 07:33N 53°44' W 000°16'0 0.0
2016-May-24 06:33N 53°44' W 000°16'0 0.0
2016-May-24 05:33N 53°44' W 000°16'0 0.0
2016-May-24 04:34N 53°44' W 000°16'0 0.0
2016-May-24 03:33N 53°44' W 000°16'0 0.0
2016-May-24 02:33N 53°44' W 000°16'0 0.0
2016-May-24 01:33N 53°44' W 000°16'0 0.0
2016-May-24 00:33N 53°44' W 000°16'0 0.0
2016-May-23 23:33N 53°44' W 000°16'0 0.0
2016-May-23 22:33N 53°44' W 000°16'0 0.0
2016-May-23 21:33N 53°44' W 000°16'0 0.1
2016-May-23 20:33N 53°44' W 000°16'1 0.9
2016-May-23 19:33N 53°44' W 000°16'4 3.6
2016-May-23 18:33N 53°43' W 000°22'0 0.0
2016-May-23 17:34N 53°43' W 000°22'0 0.0
2016-May-23 16:34N 53°43' W 000°22'0 0.0
2016-May-23 15:34N 53°43' W 000°22'0 0.0
2016-May-23 14:34N 53°43' W 000°22'0 0.0
2016-May-23 13:33N 53°43' W 000°22'0 0.0
2016-May-23 12:33N 53°43' W 000°22'0 0.0
2016-May-23 11:33N 53°43' W 000°22'0 0.0
2016-May-23 10:33N 53°43' W 000°22'0 0.0
2016-May-23 09:33N 53°43' W 000°22'0 0.0
2016-May-23 08:33N 53°43' W 000°22'0 0.0
2016-May-23 07:34N 53°43' W 000°22'0 0.0
2016-May-23 06:33N 53°43' W 000°22'0 0.0
2016-May-23 05:33N 53°43' W 000°22'0 0.0
2016-May-23 04:34N 53°43' W 000°22'0 0.0
2016-May-23 03:33N 53°43' W 000°22'0 0.0
2016-May-23 02:33N 53°43' W 000°22'0 0.0
2016-May-23 01:34N 53°43' W 000°22'0 0.0
2016-May-23 00:34N 53°43' W 000°22'0 0.0
2016-May-22 23:33N 53°43' W 000°22'0 0.0
2016-May-22 22:34N 53°43' W 000°22'0 0.0
2016-May-22 21:33N 53°43' W 000°22'0 0.0
2016-May-22 20:33N 53°43' W 000°22'0 0.0
2016-May-22 19:33N 53°43' W 000°22'0 0.0
2016-May-22 18:33N 53°43' W 000°22'0 0.0
2016-May-22 17:33N 53°43' W 000°22'5 4.7
2016-May-22 16:33N 53°42' W 000°14'1111.0
2016-May-22 15:34N 53°36' E 000°01'9 9.3
2016-May-22 14:34N 53°33' E 000°16'5 5.5
2016-May-22 13:33N 53°36' E 000°24'0 0.0
2016-May-22 12:31N 53°36' E 000°24'0 0.0
2016-May-22 11:32N 53°36' E 000°24'0 0.0
2016-May-22 10:33N 53°36' E 000°24'0 0.0
2016-May-22 09:33N 53°36' E 000°24'0 0.0
2016-May-22 08:33N 53°36' E 000°24'0 0.0
2016-May-22 07:32N 53°36' E 000°24'0 0.2
2016-May-22 06:33N 53°36' E 000°25'5 4.8
2016-May-22 05:33N 53°35' E 000°33'152 8.3
2016-May-21 11:08N 53°31' E 004°48'610.0
2016-May-21 10:33N 53°33' E 004°58'10 9.6
2016-May-21 09:33N 53°36' E 005°13'9 8.9
2016-May-21 08:33N 53°39' E 005°27'8 8.1
2016-May-21 07:33N 53°41' E 005°40'8 8.4
2016-May-21 06:33N 53°44' E 005°54'9 8.5
2016-May-21 05:33N 53°46' E 006°08'9 9.1
2016-May-21 04:33N 53°49' E 006°22'1010.3
2016-May-21 03:33N 53°52' E 006°39'1110.7
2016-May-21 02:33N 53°54' E 006°57'1110.8
2016-May-21 01:33N 53°57' E 007°15'1010.4
2016-May-21 00:33N 53°59' E 007°32'8 8.1
2016-May-20 23:33N 53°55' E 007°44'9 9.3
2016-May-20 22:33N 53°52' E 007°58'9 8.6
2016-May-20 21:33N 53°47' E 008°10'  

Dump ship's entire track history